sensor_id;sensor_type;location;lat;lon;timestamp;temperature;humidity
16038;DHT22;8123;50.906;6.172;2022-11-20T00:01:07;5.20;99.90
16038;DHT22;8123;50.906;6.172;2022-11-20T00:03:33;5.40;99.90
16038;DHT22;8123;50.906;6.172;2022-11-20T00:06:00;5.20;99.90
16038;DHT22;8123;50.906;6.172;2022-11-20T00:08:26;5.10;99.90
16038;DHT22;8123;50.906;6.172;2022-11-20T00:10:52;4.90;99.90
16038;DHT22;8123;50.906;6.172;2022-11-20T00:13:17;5.30;99.90
16038;DHT22;8123;50.906;6.172;2022-11-20T00:15:43;5.00;99.90
16038;DHT22;8123;50.906;6.172;2022-11-20T00:18:08;4.90;99.90
16038;DHT22;8123;50.906;6.172;2022-11-20T00:20:34;5.00;99.90
16038;DHT22;8123;50.906;6.172;2022-11-20T00:22:59;5.20;99.90
16038;DHT22;8123;50.906;6.172;2022-11-20T00:25:25;5.00;99.90
16038;DHT22;8123;50.906;6.172;2022-11-20T00:27:51;5.00;99.90
16038;DHT22;8123;50.906;6.172;2022-11-20T00:30:16;5.00;99.90
16038;DHT22;8123;50.906;6.172;2022-11-20T00:32:42;4.90;99.90
16038;DHT22;8123;50.906;6.172;2022-11-20T00:35:08;5.00;99.90
16038;DHT22;8123;50.906;6.172;2022-11-20T00:37:33;5.00;99.90
16038;DHT22;8123;50.906;6.172;2022-11-20T00:39:59;5.00;99.90
16038;DHT22;8123;50.906;6.172;2022-11-20T00:42:25;5.20;99.90
16038;DHT22;8123;50.906;6.172;2022-11-20T00:44:50;5.20;99.90
16038;DHT22;8123;50.906;6.172;2022-11-20T00:47:16;5.10;99.90
16038;DHT22;8123;50.906;6.172;2022-11-20T00:49:41;5.40;99.90
16038;DHT22;8123;50.906;6.172;2022-11-20T00:52:07;5.00;99.90
16038;DHT22;8123;50.906;6.172;2022-11-20T00:54:33;5.00;99.90
16038;DHT22;8123;50.906;6.172;2022-11-20T00:56:58;5.10;99.90
16038;DHT22;8123;50.906;6.172;2022-11-20T00:59:24;4.90;99.90
16038;DHT22;8123;50.906;6.172;2022-11-20T01:01:49;4.90;99.90
16038;DHT22;8123;50.906;6.172;2022-11-20T01:04:15;5.00;99.90
16038;DHT22;8123;50.906;6.172;2022-11-20T01:06:41;5.10;99.90
16038;DHT22;8123;50.906;6.172;2022-11-20T01:09:12;5.10;99.90
16038;DHT22;8123;50.906;6.172;2022-11-20T01:11:42;5.10;99.90
16038;DHT22;8123;50.906;6.172;2022-11-20T01:14:13;5.00;99.90
16038;DHT22;8123;50.906;6.172;2022-11-20T01:16:44;5.40;99.90
16038;DHT22;8123;50.906;6.172;2022-11-20T01:19:16;5.20;99.90
16038;DHT22;8123;50.906;6.172;2022-11-20T01:21:43;5.00;99.90
16038;DHT22;8123;50.906;6.172;2022-11-20T01:24:13;4.60;99.90
16038;DHT22;8123;50.906;6.172;2022-11-20T01:26:41;5.00;99.90
16038;DHT22;8123;50.906;6.172;2022-11-20T01:29:10;5.00;99.90
16038;DHT22;8123;50.906;6.172;2022-11-20T01:31:37;5.20;99.90
16038;DHT22;8123;50.906;6.172;2022-11-20T01:34:06;5.00;99.90
16038;DHT22;8123;50.906;6.172;2022-11-20T01:36:33;5.00;99.90
16038;DHT22;8123;50.906;6.172;2022-11-20T01:39:02;5.00;99.90
16038;DHT22;8123;50.906;6.172;2022-11-20T01:41:30;5.10;99.90
16038;DHT22;8123;50.906;6.172;2022-11-20T01:44:18;5.10;99.90
16038;DHT22;8123;50.906;6.172;2022-11-20T01:46:59;5.00;99.90
16038;DHT22;8123;50.906;6.172;2022-11-20T01:49:40;4.90;99.90
16038;DHT22;8123;50.906;6.172;2022-11-20T01:52:17;4.90;99.90
16038;DHT22;8123;50.906;6.172;2022-11-20T01:55:09;5.00;99.90
16038;DHT22;8123;50.906;6.172;2022-11-20T01:57:37;5.00;99.90
16038;DHT22;8123;50.906;6.172;2022-11-20T02:00:07;5.00;99.90
16038;DHT22;8123;50.906;6.172;2022-11-20T02:02:33;4.60;99.90
16038;DHT22;8123;50.906;6.172;2022-11-20T02:05:16;5.10;99.90
16038;DHT22;8123;50.906;6.172;2022-11-20T02:07:44;4.90;99.90
16038;DHT22;8123;50.906;6.172;2022-11-20T02:10:10;4.90;99.90
16038;DHT22;8123;50.906;6.172;2022-11-20T02:12:36;4.90;99.90
16038;DHT22;8123;50.906;6.172;2022-11-20T02:15:20;4.90;99.90
16038;DHT22;8123;50.906;6.172;2022-11-20T02:17:46;4.90;99.90
16038;DHT22;8123;50.906;6.172;2022-11-20T02:20:12;5.30;99.90
16038;DHT22;8123;50.906;6.172;2022-11-20T02:25:43;4.90;99.90
16038;DHT22;8123;50.906;6.172;2022-11-20T02:28:10;5.00;99.90
16038;DHT22;8123;50.906;6.172;2022-11-20T02:30:35;5.00;99.90
16038;DHT22;8123;50.906;6.172;2022-11-20T02:33:01;4.90;99.90
16038;DHT22;8123;50.906;6.172;2022-11-20T02:37:58;5.30;99.90
16038;DHT22;8123;50.906;6.172;2022-11-20T02:40:24;5.00;99.90
16038;DHT22;8123;50.906;6.172;2022-11-20T02:42:54;5.10;99.90
16038;DHT22;8123;50.906;6.172;2022-11-20T02:45:20;5.00;99.90
16038;DHT22;8123;50.906;6.172;2022-11-20T02:47:46;5.00;99.90
16038;DHT22;8123;50.906;6.172;2022-11-20T02:50:12;5.10;99.90
16038;DHT22;8123;50.906;6.172;2022-11-20T02:52:38;5.10;99.90
16038;DHT22;8123;50.906;6.172;2022-11-20T02:55:04;5.30;99.90
16038;DHT22;8123;50.906;6.172;2022-11-20T02:57:29;5.20;99.90
16038;DHT22;8123;50.906;6.172;2022-11-20T02:59:55;5.10;99.90
16038;DHT22;8123;50.906;6.172;2022-11-20T03:02:21;5.10;99.90
16038;DHT22;8123;50.906;6.172;2022-11-20T03:04:46;5.40;99.90
16038;DHT22;8123;50.906;6.172;2022-11-20T03:07:12;5.10;99.90
16038;DHT22;8123;50.906;6.172;2022-11-20T03:09:38;5.10;99.90
16038;DHT22;8123;50.906;6.172;2022-11-20T03:12:04;5.10;99.90
16038;DHT22;8123;50.906;6.172;2022-11-20T03:14:30;5.20;99.90
16038;DHT22;8123;50.906;6.172;2022-11-20T03:16:56;5.20;99.90
16038;DHT22;8123;50.906;6.172;2022-11-20T03:19:22;5.40;99.90
16038;DHT22;8123;50.906;6.172;2022-11-20T03:21:48;5.60;99.90
16038;DHT22;8123;50.906;6.172;2022-11-20T03:24:14;5.50;99.90
16038;DHT22;8123;50.906;6.172;2022-11-20T03:26:40;5.00;99.90
16038;DHT22;8123;50.906;6.172;2022-11-20T03:29:06;5.10;99.90
16038;DHT22;8123;50.906;6.172;2022-11-20T03:31:34;5.00;99.90
16038;DHT22;8123;50.906;6.172;2022-11-20T03:34:01;5.10;99.90
16038;DHT22;8123;50.906;6.172;2022-11-20T03:36:28;4.90;99.90
16038;DHT22;8123;50.906;6.172;2022-11-20T03:38:54;5.30;99.90
16038;DHT22;8123;50.906;6.172;2022-11-20T03:41:22;4.90;99.90
16038;DHT22;8123;50.906;6.172;2022-11-20T03:43:50;4.90;99.90
16038;DHT22;8123;50.906;6.172;2022-11-20T03:46:16;5.20;99.90
16038;DHT22;8123;50.906;6.172;2022-11-20T03:48:42;5.20;99.90
16038;DHT22;8123;50.906;6.172;2022-11-20T03:51:13;5.20;99.90
16038;DHT22;8123;50.906;6.172;2022-11-20T03:53:43;4.80;99.90
16038;DHT22;8123;50.906;6.172;2022-11-20T03:56:10;4.80;99.90
16038;DHT22;8123;50.906;6.172;2022-11-20T03:58:37;5.00;99.90
16038;DHT22;8123;50.906;6.172;2022-11-20T04:01:20;4.50;99.90
16038;DHT22;8123;50.906;6.172;2022-11-20T04:03:46;4.50;99.90
16038;DHT22;8123;50.906;6.172;2022-11-20T04:06:15;4.60;99.90
16038;DHT22;8123;50.906;6.172;2022-11-20T04:08:41;4.60;99.90
16038;DHT22;8123;50.906;6.172;2022-11-20T04:11:15;4.50;99.90
16038;DHT22;8123;50.906;6.172;2022-11-20T04:13:41;4.60;99.90
16038;DHT22;8123;50.906;6.172;2022-11-20T04:16:08;4.70;99.90
16038;DHT22;8123;50.906;6.172;2022-11-20T04:18:34;4.60;99.90
16038;DHT22;8123;50.906;6.172;2022-11-20T04:21:01;4.50;99.90
16038;DHT22;8123;50.906;6.172;2022-11-20T04:23:27;4.50;99.90
16038;DHT22;8123;50.906;6.172;2022-11-20T04:25:53;4.40;99.90
16038;DHT22;8123;50.906;6.172;2022-11-20T04:28:19;4.70;99.90
16038;DHT22;8123;50.906;6.172;2022-11-20T04:30:44;4.30;99.90
16038;DHT22;8123;50.906;6.172;2022-11-20T04:33:10;4.30;99.90
16038;DHT22;8123;50.906;6.172;2022-11-20T04:35:36;4.50;99.90
16038;DHT22;8123;50.906;6.172;2022-11-20T04:38:02;4.20;99.90
16038;DHT22;8123;50.906;6.172;2022-11-20T04:40:28;4.20;99.90
16038;DHT22;8123;50.906;6.172;2022-11-20T04:42:54;4.20;99.90
16038;DHT22;8123;50.906;6.172;2022-11-20T04:45:20;4.30;99.90
16038;DHT22;8123;50.906;6.172;2022-11-20T04:47:46;4.30;99.90
16038;DHT22;8123;50.906;6.172;2022-11-20T04:50:11;4.30;99.90
16038;DHT22;8123;50.906;6.172;2022-11-20T04:52:37;4.60;99.90
16038;DHT22;8123;50.906;6.172;2022-11-20T04:55:03;4.30;99.90
16038;DHT22;8123;50.906;6.172;2022-11-20T04:57:29;4.30;99.90
16038;DHT22;8123;50.906;6.172;2022-11-20T04:59:55;4.70;99.90
16038;DHT22;8123;50.906;6.172;2022-11-20T05:02:20;4.20;99.90
16038;DHT22;8123;50.906;6.172;2022-11-20T05:04:46;4.20;99.90
16038;DHT22;8123;50.906;6.172;2022-11-20T05:07:12;4.30;99.90
16038;DHT22;8123;50.906;6.172;2022-11-20T05:09:37;4.30;99.90
16038;DHT22;8123;50.906;6.172;2022-11-20T05:12:03;4.40;99.90
16038;DHT22;8123;50.906;6.172;2022-11-20T05:14:29;4.40;99.90
16038;DHT22;8123;50.906;6.172;2022-11-20T05:16:54;4.40;99.90
16038;DHT22;8123;50.906;6.172;2022-11-20T05:19:20;4.50;99.90
16038;DHT22;8123;50.906;6.172;2022-11-20T05:21:46;4.50;99.90
16038;DHT22;8123;50.906;6.172;2022-11-20T05:24:11;4.50;99.90
16038;DHT22;8123;50.906;6.172;2022-11-20T05:26:37;4.90;99.90
16038;DHT22;8123;50.906;6.172;2022-11-20T05:29:03;4.60;99.90
16038;DHT22;8123;50.906;6.172;2022-11-20T05:31:29;4.80;99.90
16038;DHT22;8123;50.906;6.172;2022-11-20T05:33:55;4.60;99.90
16038;DHT22;8123;50.906;6.172;2022-11-20T05:36:21;4.90;99.90
16038;DHT22;8123;50.906;6.172;2022-11-20T05:38:47;4.60;99.90
16038;DHT22;8123;50.906;6.172;2022-11-20T05:41:16;4.60;99.90
16038;DHT22;8123;50.906;6.172;2022-11-20T05:43:44;4.80;99.90
16038;DHT22;8123;50.906;6.172;2022-11-20T05:46:11;4.70;99.90
16038;DHT22;8123;50.906;6.172;2022-11-20T05:48:39;4.50;99.90
16038;DHT22;8123;50.906;6.172;2022-11-20T05:51:07;4.50;99.90
16038;DHT22;8123;50.906;6.172;2022-11-20T05:53:34;4.60;99.90
16038;DHT22;8123;50.906;6.172;2022-11-20T05:56:11;5.00;99.90
16038;DHT22;8123;50.906;6.172;2022-11-20T05:58:38;4.80;99.90
16038;DHT22;8123;50.906;6.172;2022-11-20T06:01:22;4.50;99.90
16038;DHT22;8123;50.906;6.172;2022-11-20T06:03:48;4.90;99.90
16038;DHT22;8123;50.906;6.172;2022-11-20T06:06:16;4.50;99.90
16038;DHT22;8123;50.906;6.172;2022-11-20T06:08:43;4.50;99.90
16038;DHT22;8123;50.906;6.172;2022-11-20T06:11:11;4.60;99.90
16038;DHT22;8123;50.906;6.172;2022-11-20T06:13:37;4.90;99.90
16038;DHT22;8123;50.906;6.172;2022-11-20T06:16:03;4.60;99.90
16038;DHT22;8123;50.906;6.172;2022-11-20T06:18:29;4.60;99.90
16038;DHT22;8123;50.906;6.172;2022-11-20T06:21:02;4.60;99.90
16038;DHT22;8123;50.906;6.172;2022-11-20T06:23:30;4.60;99.90
16038;DHT22;8123;50.906;6.172;2022-11-20T06:25:56;4.50;99.90
16038;DHT22;8123;50.906;6.172;2022-11-20T06:28:21;4.80;99.90
16038;DHT22;8123;50.906;6.172;2022-11-20T06:30:47;4.50;99.90
16038;DHT22;8123;50.906;6.172;2022-11-20T06:33:13;4.50;99.90
16038;DHT22;8123;50.906;6.172;2022-11-20T06:35:38;4.50;99.90
16038;DHT22;8123;50.906;6.172;2022-11-20T06:38:04;4.80;99.90
16038;DHT22;8123;50.906;6.172;2022-11-20T06:40:29;4.10;99.90
16038;DHT22;8123;50.906;6.172;2022-11-20T06:42:55;4.50;99.90
16038;DHT22;8123;50.906;6.172;2022-11-20T06:45:21;4.40;99.90
16038;DHT22;8123;50.906;6.172;2022-11-20T06:47:47;4.40;99.90
16038;DHT22;8123;50.906;6.172;2022-11-20T06:50:13;4.40;99.90
16038;DHT22;8123;50.906;6.172;2022-11-20T06:52:38;4.50;99.90
16038;DHT22;8123;50.906;6.172;2022-11-20T06:55:04;4.50;99.90
16038;DHT22;8123;50.906;6.172;2022-11-20T06:57:30;4.50;99.90
16038;DHT22;8123;50.906;6.172;2022-11-20T06:59:55;4.70;99.90
16038;DHT22;8123;50.906;6.172;2022-11-20T07:02:21;4.50;99.90
16038;DHT22;8123;50.906;6.172;2022-11-20T07:04:46;4.60;99.90
16038;DHT22;8123;50.906;6.172;2022-11-20T07:07:12;4.60;99.90
16038;DHT22;8123;50.906;6.172;2022-11-20T07:09:38;4.50;99.90
16038;DHT22;8123;50.906;6.172;2022-11-20T07:12:03;4.60;99.90
16038;DHT22;8123;50.906;6.172;2022-11-20T07:14:29;4.70;99.90
16038;DHT22;8123;50.906;6.172;2022-11-20T07:16:55;5.00;99.90
16038;DHT22;8123;50.906;6.172;2022-11-20T07:19:20;4.80;99.90
16038;DHT22;8123;50.906;6.172;2022-11-20T07:21:46;4.60;99.90
16038;DHT22;8123;50.906;6.172;2022-11-20T07:24:11;5.00;99.90
16038;DHT22;8123;50.906;6.172;2022-11-20T07:26:37;4.70;99.90
16038;DHT22;8123;50.906;6.172;2022-11-20T07:29:03;4.70;99.90
16038;DHT22;8123;50.906;6.172;2022-11-20T07:31:28;4.70;99.90
16038;DHT22;8123;50.906;6.172;2022-11-20T07:33:54;4.70;99.90
16038;DHT22;8123;50.906;6.172;2022-11-20T07:36:20;4.90;99.90
16038;DHT22;8123;50.906;6.172;2022-11-20T07:38:45;5.20;99.90
16038;DHT22;8123;50.906;6.172;2022-11-20T07:41:11;4.80;99.90
16038;DHT22;8123;50.906;6.172;2022-11-20T07:43:37;5.40;99.90
16038;DHT22;8123;50.906;6.172;2022-11-20T07:46:02;5.20;99.90
16038;DHT22;8123;50.906;6.172;2022-11-20T07:48:29;4.90;99.90
16038;DHT22;8123;50.906;6.172;2022-11-20T07:50:55;5.10;99.90
16038;DHT22;8123;50.906;6.172;2022-11-20T07:53:22;4.90;99.90
16038;DHT22;8123;50.906;6.172;2022-11-20T07:55:50;4.90;99.90
16038;DHT22;8123;50.906;6.172;2022-11-20T07:58:20;4.90;99.90
16038;DHT22;8123;50.906;6.172;2022-11-20T08:00:46;4.90;99.90
16038;DHT22;8123;50.906;6.172;2022-11-20T08:03:12;5.10;99.90
16038;DHT22;8123;50.906;6.172;2022-11-20T08:05:38;4.80;99.90
16038;DHT22;8123;50.906;6.172;2022-11-20T08:08:03;4.80;99.90
16038;DHT22;8123;50.906;6.172;2022-11-20T08:10:29;4.80;99.90
16038;DHT22;8123;50.906;6.172;2022-11-20T08:12:55;5.00;99.90
16038;DHT22;8123;50.906;6.172;2022-11-20T08:15:40;4.90;99.90
16038;DHT22;8123;50.906;6.172;2022-11-20T08:18:12;5.00;99.90
16038;DHT22;8123;50.906;6.172;2022-11-20T08:20:37;4.90;99.90
16038;DHT22;8123;50.906;6.172;2022-11-20T08:23:06;5.30;99.90
16038;DHT22;8123;50.906;6.172;2022-11-20T08:25:33;5.10;99.90
16038;DHT22;8123;50.906;6.172;2022-11-20T08:28:00;5.00;99.90
16038;DHT22;8123;50.906;6.172;2022-11-20T08:30:26;5.10;99.90
16038;DHT22;8123;50.906;6.172;2022-11-20T08:32:53;5.20;99.90
16038;DHT22;8123;50.906;6.172;2022-11-20T08:35:20;5.00;99.90
16038;DHT22;8123;50.906;6.172;2022-11-20T08:37:49;5.10;99.90
16038;DHT22;8123;50.906;6.172;2022-11-20T08:40:15;5.10;99.90
16038;DHT22;8123;50.906;6.172;2022-11-20T08:42:47;5.20;99.90
16038;DHT22;8123;50.906;6.172;2022-11-20T08:45:14;5.20;99.90
16038;DHT22;8123;50.906;6.172;2022-11-20T08:47:39;5.20;99.90
16038;DHT22;8123;50.906;6.172;2022-11-20T08:50:05;5.30;99.90
16038;DHT22;8123;50.906;6.172;2022-11-20T08:52:31;5.20;99.90
16038;DHT22;8123;50.906;6.172;2022-11-20T08:54:57;5.20;99.90
16038;DHT22;8123;50.906;6.172;2022-11-20T08:57:22;5.50;99.90
16038;DHT22;8123;50.906;6.172;2022-11-20T08:59:48;5.40;99.90
16038;DHT22;8123;50.906;6.172;2022-11-20T09:02:14;5.40;99.90
16038;DHT22;8123;50.906;6.172;2022-11-20T09:04:40;5.50;99.90
16038;DHT22;8123;50.906;6.172;2022-11-20T09:07:06;5.50;99.90
16038;DHT22;8123;50.906;6.172;2022-11-20T09:09:32;6.00;99.90
16038;DHT22;8123;50.906;6.172;2022-11-20T09:11:58;5.80;99.90
16038;DHT22;8123;50.906;6.172;2022-11-20T09:14:23;5.90;99.90
16038;DHT22;8123;50.906;6.172;2022-11-20T09:16:55;5.90;99.90
16038;DHT22;8123;50.906;6.172;2022-11-20T09:19:21;5.80;99.90
16038;DHT22;8123;50.906;6.172;2022-11-20T09:21:46;5.90;99.90
16038;DHT22;8123;50.906;6.172;2022-11-20T09:24:12;6.10;99.90
16038;DHT22;8123;50.906;6.172;2022-11-20T09:26:37;5.80;99.90
16038;DHT22;8123;50.906;6.172;2022-11-20T09:29:03;5.80;99.90
16038;DHT22;8123;50.906;6.172;2022-11-20T09:31:28;5.80;99.90
16038;DHT22;8123;50.906;6.172;2022-11-20T09:33:54;5.90;99.90
16038;DHT22;8123;50.906;6.172;2022-11-20T09:36:20;5.90;99.90
16038;DHT22;8123;50.906;6.172;2022-11-20T09:38:46;6.20;99.90
16038;DHT22;8123;50.906;6.172;2022-11-20T09:47:36;6.00;99.90
16038;DHT22;8123;50.906;6.172;2022-11-20T09:50:43;6.10;99.90
16038;DHT22;8123;50.906;6.172;2022-11-20T09:53:55;6.20;99.90
16038;DHT22;8123;50.906;6.172;2022-11-20T09:56:19;6.20;99.90
16038;DHT22;8123;50.906;6.172;2022-11-20T09:58:49;6.10;99.90
16038;DHT22;8123;50.906;6.172;2022-11-20T10:01:17;6.10;99.90
16038;DHT22;8123;50.906;6.172;2022-11-20T10:04:10;6.20;99.90
16038;DHT22;8123;50.906;6.172;2022-11-20T10:06:51;6.20;99.90
16038;DHT22;8123;50.906;6.172;2022-11-20T10:12:12;6.30;99.90
16038;DHT22;8123;50.906;6.172;2022-11-20T10:31:04;6.60;99.90
16038;DHT22;8123;50.906;6.172;2022-11-20T10:33:43;6.80;99.90
16038;DHT22;8123;50.906;6.172;2022-11-20T10:36:24;6.90;99.90
16038;DHT22;8123;50.906;6.172;2022-11-20T10:39:05;6.70;99.90
16038;DHT22;8123;50.906;6.172;2022-11-20T10:41:38;6.80;99.90
16038;DHT22;8123;50.906;6.172;2022-11-20T10:44:20;6.80;99.90
16038;DHT22;8123;50.906;6.172;2022-11-20T10:47:05;6.80;99.90
16038;DHT22;8123;50.906;6.172;2022-11-20T10:49:36;7.30;99.90
16038;DHT22;8123;50.906;6.172;2022-11-20T10:52:37;7.10;99.90
16038;DHT22;8123;50.906;6.172;2022-11-20T10:58:14;7.00;99.90
16038;DHT22;8123;50.906;6.172;2022-11-20T11:00:42;7.00;99.90
16038;DHT22;8123;50.906;6.172;2022-11-20T11:03:26;7.00;99.90
16038;DHT22;8123;50.906;6.172;2022-11-20T11:06:03;7.30;99.90
16038;DHT22;8123;50.906;6.172;2022-11-20T11:08:38;7.10;99.90
16038;DHT22;8123;50.906;6.172;2022-11-20T11:11:28;7.50;99.90
16038;DHT22;8123;50.906;6.172;2022-11-20T11:14:08;7.30;99.90
16038;DHT22;8123;50.906;6.172;2022-11-20T11:16:34;7.30;99.90
16038;DHT22;8123;50.906;6.172;2022-11-20T11:19:18;7.40;99.90
16038;DHT22;8123;50.906;6.172;2022-11-20T11:21:52;7.40;99.90
16038;DHT22;8123;50.906;6.172;2022-11-20T11:24:28;7.50;99.90
16038;DHT22;8123;50.906;6.172;2022-11-20T11:27:02;7.60;99.90
16038;DHT22;8123;50.906;6.172;2022-11-20T11:29:32;7.70;99.90
16038;DHT22;8123;50.906;6.172;2022-11-20T11:32:07;7.80;99.90
16038;DHT22;8123;50.906;6.172;2022-11-20T11:34:33;7.80;99.90
16038;DHT22;8123;50.906;6.172;2022-11-20T11:37:00;7.90;99.90
16038;DHT22;8123;50.906;6.172;2022-11-20T11:39:28;8.30;99.90
16038;DHT22;8123;50.906;6.172;2022-11-20T11:41:54;8.00;99.90
16038;DHT22;8123;50.906;6.172;2022-11-20T11:47:37;7.90;99.90
16038;DHT22;8123;50.906;6.172;2022-11-20T11:52:56;7.80;99.90
16038;DHT22;8123;50.906;6.172;2022-11-20T11:56:13;7.90;99.90
16038;DHT22;8123;50.906;6.172;2022-11-20T11:58:39;8.00;99.90
16038;DHT22;8123;50.906;6.172;2022-11-20T12:03:39;7.90;99.90
16038;DHT22;8123;50.906;6.172;2022-11-20T12:06:14;7.90;99.90
16038;DHT22;8123;50.906;6.172;2022-11-20T12:14:11;8.10;99.90
16038;DHT22;8123;50.906;6.172;2022-11-20T12:16:40;8.10;99.90
16038;DHT22;8123;50.906;6.172;2022-11-20T12:19:13;8.10;99.90
16038;DHT22;8123;50.906;6.172;2022-11-20T12:24:42;8.00;99.90
16038;DHT22;8123;50.906;6.172;2022-11-20T12:30:18;8.00;99.90
16038;DHT22;8123;50.906;6.172;2022-11-20T12:44:42;8.00;99.90
16038;DHT22;8123;50.906;6.172;2022-11-20T13:07:18;8.00;99.90
16038;DHT22;8123;50.906;6.172;2022-11-20T13:09:48;8.10;99.90
16038;DHT22;8123;50.906;6.172;2022-11-20T13:12:37;8.20;99.90
16038;DHT22;8123;50.906;6.172;2022-11-20T13:17:47;8.20;99.90
16038;DHT22;8123;50.906;6.172;2022-11-20T13:20:18;8.10;99.90
16038;DHT22;8123;50.906;6.172;2022-11-20T13:22:49;8.50;99.90
16038;DHT22;8123;50.906;6.172;2022-11-20T13:25:36;8.20;99.90
16038;DHT22;8123;50.906;6.172;2022-11-20T13:30:53;8.80;99.90
16038;DHT22;8123;50.906;6.172;2022-11-20T13:33:33;8.60;99.90
16038;DHT22;8123;50.906;6.172;2022-11-20T13:36:24;8.70;99.90
16038;DHT22;8123;50.906;6.172;2022-11-20T13:38:51;8.80;99.90
16038;DHT22;8123;50.906;6.172;2022-11-20T13:41:29;9.10;99.90
16038;DHT22;8123;50.906;6.172;2022-11-20T13:44:09;8.90;99.90
16038;DHT22;8123;50.906;6.172;2022-11-20T13:46:44;8.90;99.90
16038;DHT22;8123;50.906;6.172;2022-11-20T13:57:02;9.00;99.90
16038;DHT22;8123;50.906;6.172;2022-11-20T13:59:39;8.90;99.90
16038;DHT22;8123;50.906;6.172;2022-11-20T14:02:16;8.90;99.90
16038;DHT22;8123;50.906;6.172;2022-11-20T14:04:48;8.90;99.90
16038;DHT22;8123;50.906;6.172;2022-11-20T14:07:17;8.90;99.90
16038;DHT22;8123;50.906;6.172;2022-11-20T14:09:55;9.10;99.90
16038;DHT22;8123;50.906;6.172;2022-11-20T14:12:26;8.80;99.90
16038;DHT22;8123;50.906;6.172;2022-11-20T14:14:54;9.10;99.90
16038;DHT22;8123;50.906;6.172;2022-11-20T14:17:33;8.80;99.90
16038;DHT22;8123;50.906;6.172;2022-11-20T14:20:02;8.80;99.90
16038;DHT22;8123;50.906;6.172;2022-11-20T14:22:29;8.80;99.90
16038;DHT22;8123;50.906;6.172;2022-11-20T14:25:20;8.70;99.90
16038;DHT22;8123;50.906;6.172;2022-11-20T14:27:57;8.70;99.90
16038;DHT22;8123;50.906;6.172;2022-11-20T14:30:28;8.70;99.90
16038;DHT22;8123;50.906;6.172;2022-11-20T14:33:02;8.60;99.90
16038;DHT22;8123;50.906;6.172;2022-11-20T14:35:37;8.50;99.90
16038;DHT22;8123;50.906;6.172;2022-11-20T14:38:15;8.40;99.90
16038;DHT22;8123;50.906;6.172;2022-11-20T14:40:41;8.30;99.90
16038;DHT22;8123;50.906;6.172;2022-11-20T14:45:59;8.10;99.90
16038;DHT22;8123;50.906;6.172;2022-11-20T14:51:04;8.00;99.90
16038;DHT22;8123;50.906;6.172;2022-11-20T14:53:29;7.90;99.90
16038;DHT22;8123;50.906;6.172;2022-11-20T14:55:58;8.40;99.90
16038;DHT22;8123;50.906;6.172;2022-11-20T14:58:30;7.90;99.90
16038;DHT22;8123;50.906;6.172;2022-11-20T15:03:38;7.90;99.90
16038;DHT22;8123;50.906;6.172;2022-11-20T15:06:05;7.80;99.90
16038;DHT22;8123;50.906;6.172;2022-11-20T15:08:32;7.80;99.90
16038;DHT22;8123;50.906;6.172;2022-11-20T15:10:58;7.80;99.90
16038;DHT22;8123;50.906;6.172;2022-11-20T15:13:36;7.80;99.90
16038;DHT22;8123;50.906;6.172;2022-11-20T15:16:03;7.70;99.90
16038;DHT22;8123;50.906;6.172;2022-11-20T15:18:32;7.70;99.90
16038;DHT22;8123;50.906;6.172;2022-11-20T15:21:04;7.70;99.90
16038;DHT22;8123;50.906;6.172;2022-11-20T15:23:31;7.70;99.90
16038;DHT22;8123;50.906;6.172;2022-11-20T15:25:57;7.70;99.90
16038;DHT22;8123;50.906;6.172;2022-11-20T15:28:31;7.70;99.90
16038;DHT22;8123;50.906;6.172;2022-11-20T15:30:59;7.70;99.90
16038;DHT22;8123;50.906;6.172;2022-11-20T15:33:25;7.60;99.90
16038;DHT22;8123;50.906;6.172;2022-11-20T15:35:50;7.70;99.90
16038;DHT22;8123;50.906;6.172;2022-11-20T15:38:16;7.70;99.90
16038;DHT22;8123;50.906;6.172;2022-11-20T15:40:41;7.80;99.90
16038;DHT22;8123;50.906;6.172;2022-11-20T15:43:07;7.60;99.90
16038;DHT22;8123;50.906;6.172;2022-11-20T15:45:48;7.90;99.90
16038;DHT22;8123;50.906;6.172;2022-11-20T15:48:24;7.60;99.90
16038;DHT22;8123;50.906;6.172;2022-11-20T15:53:19;7.60;99.90
16038;DHT22;8123;50.906;6.172;2022-11-20T15:55:44;7.60;99.90
16038;DHT22;8123;50.906;6.172;2022-11-20T15:58:10;7.50;99.90
16038;DHT22;8123;50.906;6.172;2022-11-20T16:00:36;7.50;99.90
16038;DHT22;8123;50.906;6.172;2022-11-20T16:03:01;7.50;99.90
16038;DHT22;8123;50.906;6.172;2022-11-20T16:05:30;7.50;99.90
16038;DHT22;8123;50.906;6.172;2022-11-20T16:07:56;7.50;99.90
16038;DHT22;8123;50.906;6.172;2022-11-20T16:10:22;7.50;99.90
16038;DHT22;8123;50.906;6.172;2022-11-20T16:12:48;7.50;99.90
16038;DHT22;8123;50.906;6.172;2022-11-20T16:15:34;7.80;99.90
16038;DHT22;8123;50.906;6.172;2022-11-20T16:18:14;7.50;99.90
16038;DHT22;8123;50.906;6.172;2022-11-20T16:20:40;7.50;99.90
16038;DHT22;8123;50.906;6.172;2022-11-20T16:23:06;7.50;99.90
16038;DHT22;8123;50.906;6.172;2022-11-20T16:25:32;7.40;99.90
16038;DHT22;8123;50.906;6.172;2022-11-20T16:27:58;7.80;99.90
16038;DHT22;8123;50.906;6.172;2022-11-20T16:30:23;7.40;99.90
16038;DHT22;8123;50.906;6.172;2022-11-20T16:32:49;7.40;99.90
16038;DHT22;8123;50.906;6.172;2022-11-20T16:35:15;7.60;99.90
16038;DHT22;8123;50.906;6.172;2022-11-20T16:37:40;7.40;99.90
16038;DHT22;8123;50.906;6.172;2022-11-20T16:40:07;7.40;99.90
16038;DHT22;8123;50.906;6.172;2022-11-20T16:42:34;7.50;99.90
16038;DHT22;8123;50.906;6.172;2022-11-20T16:45:00;7.90;99.90
16038;DHT22;8123;50.906;6.172;2022-11-20T16:47:26;7.50;99.90
16038;DHT22;8123;50.906;6.172;2022-11-20T16:49:51;7.70;99.90
16038;DHT22;8123;50.906;6.172;2022-11-20T16:52:17;7.60;99.90
16038;DHT22;8123;50.906;6.172;2022-11-20T16:54:43;7.60;99.90
16038;DHT22;8123;50.906;6.172;2022-11-20T16:57:08;7.50;99.90
16038;DHT22;8123;50.906;6.172;2022-11-20T16:59:34;7.90;99.90
16038;DHT22;8123;50.906;6.172;2022-11-20T17:01:59;7.60;99.90
16038;DHT22;8123;50.906;6.172;2022-11-20T17:04:25;7.60;99.90
16038;DHT22;8123;50.906;6.172;2022-11-20T17:06:50;7.60;99.90
16038;DHT22;8123;50.906;6.172;2022-11-20T17:09:16;7.60;99.90
16038;DHT22;8123;50.906;6.172;2022-11-20T17:11:42;7.70;99.90
16038;DHT22;8123;50.906;6.172;2022-11-20T17:14:12;7.80;99.90
16038;DHT22;8123;50.906;6.172;2022-11-20T17:16:38;7.90;99.90
16038;DHT22;8123;50.906;6.172;2022-11-20T17:19:04;8.00;99.90
16038;DHT22;8123;50.906;6.172;2022-11-20T17:21:31;7.80;99.90
16038;DHT22;8123;50.906;6.172;2022-11-20T17:24:00;7.80;99.90
16038;DHT22;8123;50.906;6.172;2022-11-20T17:26:29;8.30;99.90
16038;DHT22;8123;50.906;6.172;2022-11-20T17:29:03;7.90;99.90
16038;DHT22;8123;50.906;6.172;2022-11-20T17:31:30;7.90;99.90
16038;DHT22;8123;50.906;6.172;2022-11-20T17:33:57;8.10;99.90
16038;DHT22;8123;50.906;6.172;2022-11-20T17:36:24;8.00;99.90
16038;DHT22;8123;50.906;6.172;2022-11-20T17:38:50;8.30;99.90
16038;DHT22;8123;50.906;6.172;2022-11-20T17:41:20;8.10;99.90
16038;DHT22;8123;50.906;6.172;2022-11-20T17:43:47;8.10;99.90
16038;DHT22;8123;50.906;6.172;2022-11-20T17:46:15;8.10;99.90
16038;DHT22;8123;50.906;6.172;2022-11-20T17:48:42;8.40;99.90
16038;DHT22;8123;50.906;6.172;2022-11-20T17:51:17;8.20;99.90
16038;DHT22;8123;50.906;6.172;2022-11-20T17:53:45;8.50;99.90
16038;DHT22;8123;50.906;6.172;2022-11-20T17:56:11;8.30;99.90
16038;DHT22;8123;50.906;6.172;2022-11-20T17:58:55;8.20;99.90
16038;DHT22;8123;50.906;6.172;2022-11-20T18:01:21;8.30;99.90
16038;DHT22;8123;50.906;6.172;2022-11-20T18:03:48;8.60;99.90